LICBLIRH

Guest
Details From LICB - Magliocco
To LIRH - Frosinone
Flight Number -
Tags decoded
Created
Modified
Stats Distance 286 nm / 529 km
Max Altitude 0 ft / 0 m
Waypoints 2
Social Downloads 0
Likes 0
Share VATSIM

Download

Looking for another format? Having issues loading an existing format? Contact us
Advertisement - Login to hide

Notes

Requested: LICB LIRH

Route

LICB LIRH

ID Type Via Altitude Latitude Longitude Leg Dist Tot Dist Heading (true) Name
O LICB APT - 0 ft / 0 m 36.99403˚ 14.60627˚ - 0 nm - Magliocco
O LIRH APT - 0 ft / 0 m 41.64583˚ 13.30000˚ 285 nm 285 nm 348° / 347° Frosinone

Altitude Profile

Advertisement - Login to hide

Weather


0- 5 10 15 20 25 30 35+ Temperature / ° C

Clouds and Precipitation
Forecast for 2018-05-21 12:00 UTC. Updated 35 minutes ago

Ground ~20,000 ft ~40,000 ft Winds

LICB

Details ICAO LICB
Name Magliocco
Region Italy
Timezone Europe/Rome (UTC+2.0)
Stats Elevation 757 ft / 231 m (AMSL)
Location 36.994031° 14.606274°
Runways 1
Magnetic Variation 3.155° E

METAR

LICB 210850Z 12005KT 050V220 CAVOK 27/09 Q1013

Decode

TAF

Not found

Departure Runways

ID Width Length Bearing (true) Bearing (mag) Surface Threshold Offset Overrun Length
05 147 ft / 45 m 8,334 ft / 2,540 m 49.99° 46.83° Asphalt 196 ft / 60 m 452 ft / 138 m
23 147 ft / 45 m 8,334 ft / 2,540 m 230.01° 226.85° Asphalt 0 ft / 0 m 0 ft / 0 m

LIRH

Details ICAO LIRH
Name Frosinone
Region Italy
Timezone Europe/Rome (UTC+2.0)
Stats Elevation 645 ft / 197 m (AMSL)
Location 41.645832° 13.300000°
Runways 1
Magnetic Variation 3.223° E

METAR

LIRH 210855Z 18003KT 9999 FEW035TCU 22/10 Q1014 RMK BKN SCT090 MON LIB NC VIS MIN 9999 WIND THR16 18004KT BLU

Decode

TAF

Not found

Destination Runways

ID Width Length Bearing (true) Bearing (mag) Surface Threshold Offset Overrun Length
16 131 ft / 40 m 4,698 ft / 1,432 m 162.00° 158.78° Dirt 0 ft / 0 m 0 ft / 0 m
34 131 ft / 40 m 4,698 ft / 1,432 m 342.00° 338.78° Dirt 0 ft / 0 m 0 ft / 0 m